New Mount Pleasant, Indiana
Current Conditions -  °F | °C
As of 7:53 PM on Wednesday 26 Nov 2014 (Local Time) from KMIE Reporting Station
Overcast Overcast  
Wind Chill: -6°   Ceiling: 1800
Heat Index: -2°   Visibility: 10mi
Dew Point: -6°   Wind: 6mph
Humidity: 75%   Direction: 60°ENE
Pressure: 30.07"   Gusts: NA
Location:  40.4312°N, 85.0058°W
Report Text: KMIE 270053Z 06005KT 10SM OVC018 M02/M06 A3007 RMK AO2 SLP190 T10221061
Loading
Personal Weather Stations






























Interactive Weather Map New forecast layout! Learn more

10-Day Weather Forecast

Advertisements
Track Severe Weather on mobile